sensor_id;sensor_type;location;lat;lon;timestamp;pressure;altitude;pressure_sealevel;temperature;humidity
13952;BME280;39535;52.192;9.886;2023-02-23T00:00:34;100037.88;;;8.74;95.54
13952;BME280;39535;52.192;9.886;2023-02-23T00:03:02;100046.69;;;8.66;95.69
13952;BME280;39535;52.192;9.886;2023-02-23T00:05:31;100043.09;;;8.74;95.57
13952;BME280;39535;52.192;9.886;2023-02-23T00:08:00;100052.53;;;8.80;95.53
13952;BME280;39535;52.192;9.886;2023-02-23T00:10:27;100049.94;;;8.80;95.23
13952;BME280;39535;52.192;9.886;2023-02-23T00:12:55;100060.25;;;8.85;94.79
13952;BME280;39535;52.192;9.886;2023-02-23T00:15:22;100084.63;;;8.79;94.89
13952;BME280;39535;52.192;9.886;2023-02-23T00:17:51;100068.91;;;8.84;94.91
13952;BME280;39535;52.192;9.886;2023-02-23T00:20:19;100069.72;;;8.87;94.82
13952;BME280;39535;52.192;9.886;2023-02-23T00:22:51;100067.09;;;8.89;94.58
13952;BME280;39535;52.192;9.886;2023-02-23T00:25:18;100073.28;;;8.83;94.75
13952;BME280;39535;52.192;9.886;2023-02-23T00:27:45;100068.06;;;8.85;94.71
13952;BME280;39535;52.192;9.886;2023-02-23T00:30:14;100079.38;;;8.82;94.87
13952;BME280;39535;52.192;9.886;2023-02-23T00:32:40;100073.38;;;8.79;94.90
13952;BME280;39535;52.192;9.886;2023-02-23T00:35:07;100068.06;;;8.83;95.14
13952;BME280;39535;52.192;9.886;2023-02-23T00:37:42;100076.56;;;8.93;94.74
13952;BME280;39535;52.192;9.886;2023-02-23T00:40:10;100087.88;;;8.92;94.16
13952;BME280;39535;52.192;9.886;2023-02-23T00:42:40;100092.19;;;8.94;93.80
13952;BME280;39535;52.192;9.886;2023-02-23T00:45:07;100106.03;;;8.95;nan
13952;BME280;39535;52.192;9.886;2023-02-23T00:47:36;100101.78;;;8.91;93.52
13952;BME280;39535;52.192;9.886;2023-02-23T00:50:03;100107.78;;;8.94;93.37
13952;BME280;39535;52.192;9.886;2023-02-23T00:52:30;100115.50;;;9.01;92.97
13952;BME280;39535;52.192;9.886;2023-02-23T00:54:58;100128.50;;;9.01;92.77
13952;BME280;39535;52.192;9.886;2023-02-23T00:57:24;100136.56;;;8.85;93.25
13952;BME280;39535;52.192;9.886;2023-02-23T00:59:51;100131.16;;;8.98;93.32
13952;BME280;39535;52.192;9.886;2023-02-23T01:02:17;100140.59;;;9.05;93.16
13952;BME280;39535;52.192;9.886;2023-02-23T01:04:43;100147.53;;;9.04;92.44
13952;BME280;39535;52.192;9.886;2023-02-23T01:07:10;100157.16;;;9.01;92.37
13952;BME280;39535;52.192;9.886;2023-02-23T01:09:37;100157.16;;;8.99;92.51
13952;BME280;39535;52.192;9.886;2023-02-23T01:12:05;100156.34;;;8.97;92.34
13952;BME280;39535;52.192;9.886;2023-02-23T01:14:32;100157.28;;;8.93;92.58
13952;BME280;39535;52.192;9.886;2023-02-23T01:16:59;100161.59;;;8.94;92.89
13952;BME280;39535;52.192;9.886;2023-02-23T01:19:26;100146.84;;;8.93;93.09
13952;BME280;39535;52.192;9.886;2023-02-23T01:21:52;100144.22;;;8.94;93.24
13952;BME280;39535;52.192;9.886;2023-02-23T01:24:19;100136.69;;;8.78;93.91
13952;BME280;39535;52.192;9.886;2023-02-23T01:26:45;100122.91;;;8.72;94.34
13952;BME280;39535;52.192;9.886;2023-02-23T01:29:15;100104.75;;;8.69;94.69
13952;BME280;39535;52.192;9.886;2023-02-23T01:31:43;100093.56;;;8.64;95.08
13952;BME280;39535;52.192;9.886;2023-02-23T01:34:12;100085.78;;;8.63;95.37
13952;BME280;39535;52.192;9.886;2023-02-23T01:36:41;100084.13;;;8.57;95.91
13952;BME280;39535;52.192;9.886;2023-02-23T01:39:10;100065.09;;;8.55;96.14
13952;BME280;39535;52.192;9.886;2023-02-23T01:41:37;100057.28;;;8.55;96.55
13952;BME280;39535;52.192;9.886;2023-02-23T01:44:57;100056.25;;;8.65;96.46
13952;BME280;39535;52.192;9.886;2023-02-23T01:46:55;100056.97;;;8.73;96.25
13952;BME280;39535;52.192;9.886;2023-02-23T01:49:24;100069.94;;;8.75;95.93
13952;BME280;39535;52.192;9.886;2023-02-23T01:51:53;100074.22;;;8.79;95.91
13952;BME280;39535;52.192;9.886;2023-02-23T01:54:23;100083.72;;;8.82;95.57
13952;BME280;39535;52.192;9.886;2023-02-23T01:56:54;100087.22;;;8.81;95.25
13952;BME280;39535;52.192;9.886;2023-02-23T01:59:24;100094.19;;;8.79;95.13
13952;BME280;39535;52.192;9.886;2023-02-23T02:01:55;100091.56;;;8.80;95.02
13952;BME280;39535;52.192;9.886;2023-02-23T02:04:21;100094.19;;;8.79;95.04
13952;BME280;39535;52.192;9.886;2023-02-23T02:06:50;100101.19;;;8.75;94.93
13952;BME280;39535;52.192;9.886;2023-02-23T02:09:21;100098.59;;;8.73;95.02
13952;BME280;39535;52.192;9.886;2023-02-23T02:11:51;100102.94;;;8.74;94.74
13952;BME280;39535;52.192;9.886;2023-02-23T02:14:21;100102.13;;;8.71;94.83
13952;BME280;39535;52.192;9.886;2023-02-23T02:17:17;100111.69;;;8.70;94.86
13952;BME280;39535;52.192;9.886;2023-02-23T02:20:08;100112.63;;;8.65;94.68
13952;BME280;39535;52.192;9.886;2023-02-23T02:23:18;100113.59;;;8.58;95.21
13952;BME280;39535;52.192;9.886;2023-02-23T02:25:58;100104.13;;;8.55;95.64
13952;BME280;39535;52.192;9.886;2023-02-23T02:31:52;100086.84;;;8.51;96.00
13952;BME280;39535;52.192;9.886;2023-02-23T02:37:53;100066.94;;;8.48;96.82
13952;BME280;39535;52.192;9.886;2023-02-23T02:40:26;100077.13;;;8.62;96.49
13952;BME280;39535;52.192;9.886;2023-02-23T02:43:02;100084.72;;;8.74;96.11
13952;BME280;39535;52.192;9.886;2023-02-23T02:45:41;100095.84;;;8.84;95.43
13952;BME280;39535;52.192;9.886;2023-02-23T02:48:14;100112.22;;;8.89;94.80
13952;BME280;39535;52.192;9.886;2023-02-23T02:50:46;100131.25;;;8.91;94.00
13952;BME280;39535;52.192;9.886;2023-02-23T02:53:20;100145.47;;;8.72;93.76
13952;BME280;39535;52.192;9.886;2023-02-23T02:55:48;100138.66;;;8.63;94.61
13952;BME280;39535;52.192;9.886;2023-02-23T02:58:17;100130.25;;;8.47;94.93
13952;BME280;39535;52.192;9.886;2023-02-23T03:00:45;100105.34;;;8.29;96.46
13952;BME280;39535;52.192;9.886;2023-02-23T03:03:31;100076.13;;;8.13;97.80
13952;BME280;39535;52.192;9.886;2023-02-23T03:06:15;100045.97;;;8.02;98.69
13952;BME280;39535;52.192;9.886;2023-02-23T03:09:07;100031.28;;;7.99;98.61
13952;BME280;39535;52.192;9.886;2023-02-23T03:12:06;100021.75;;;7.96;99.15
13952;BME280;39535;52.192;9.886;2023-02-23T03:14:55;100020.19;;;7.88;99.83
13952;BME280;39535;52.192;9.886;2023-02-23T03:17:47;99997.81;;;7.76;100.00
13952;BME280;39535;52.192;9.886;2023-02-23T03:20:42;99977.91;;;7.76;100.00
13952;BME280;39535;52.192;9.886;2023-02-23T03:23:32;99975.41;;;7.69;100.00
13952;BME280;39535;52.192;9.886;2023-02-23T03:26:24;99955.53;;;7.68;100.00
13952;BME280;39535;52.192;9.886;2023-02-23T03:29:13;99941.69;;;7.67;100.00
13952;BME280;39535;52.192;9.886;2023-02-23T03:32:03;99951.03;;;7.78;100.00
13952;BME280;39535;52.192;9.886;2023-02-23T03:34:53;99956.25;;;7.78;100.00
13952;BME280;39535;52.192;9.886;2023-02-23T03:37:43;99966.53;;;7.85;100.00
13952;BME280;39535;52.192;9.886;2023-02-23T03:40:33;99973.19;;;8.02;100.00
13952;BME280;39535;52.192;9.886;2023-02-23T03:43:23;99995.25;;;7.74;100.00
13952;BME280;39535;52.192;9.886;2023-02-23T03:46:11;99980.66;;;7.66;100.00
13952;BME280;39535;52.192;9.886;2023-02-23T03:48:58;99965.16;;;7.60;100.00
13952;BME280;39535;52.192;9.886;2023-02-23T03:51:46;99964.13;;;7.71;100.00
13952;BME280;39535;52.192;9.886;2023-02-23T03:54:35;99980.47;;;7.80;100.00
13952;BME280;39535;52.192;9.886;2023-02-23T03:57:25;99989.00;;;7.88;100.00
13952;BME280;39535;52.192;9.886;2023-02-23T04:00:16;100009.66;;;7.95;100.00
13952;BME280;39535;52.192;9.886;2023-02-23T04:03:05;100021.72;;;8.00;100.00
13952;BME280;39535;52.192;9.886;2023-02-23T04:05:51;100038.09;;;8.06;99.94
13952;BME280;39535;52.192;9.886;2023-02-23T04:08:38;100053.59;;;8.12;99.32
13952;BME280;39535;52.192;9.886;2023-02-23T04:11:27;100059.66;;;8.13;99.05
13952;BME280;39535;52.192;9.886;2023-02-23T04:14:17;100068.22;;;8.20;98.67
13952;BME280;39535;52.192;9.886;2023-02-23T04:16:46;100079.41;;;8.25;98.03
13952;BME280;39535;52.192;9.886;2023-02-23T04:19:11;100083.75;;;8.24;97.54
13952;BME280;39535;52.192;9.886;2023-02-23T04:21:38;100094.13;;;8.26;96.91
13952;BME280;39535;52.192;9.886;2023-02-23T04:24:04;100108.75;;;8.33;96.96
13952;BME280;39535;52.192;9.886;2023-02-23T04:26:31;100115.66;;;8.35;96.51
13952;BME280;39535;52.192;9.886;2023-02-23T04:28:57;100099.44;;;8.18;98.19
13952;BME280;39535;52.192;9.886;2023-02-23T04:31:23;100081.31;;;8.15;98.56
13952;BME280;39535;52.192;9.886;2023-02-23T04:33:51;100085.63;;;8.14;98.21
13952;BME280;39535;52.192;9.886;2023-02-23T04:36:17;100082.06;;;8.20;98.28
13952;BME280;39535;52.192;9.886;2023-02-23T04:38:44;100090.66;;;8.25;97.48
13952;BME280;39535;52.192;9.886;2023-02-23T04:41:10;100101.06;;;8.25;97.06
13952;BME280;39535;52.192;9.886;2023-02-23T04:43:36;100100.13;;;8.31;97.38
13952;BME280;39535;52.192;9.886;2023-02-23T04:46:03;100116.50;;;8.36;97.04
13952;BME280;39535;52.192;9.886;2023-02-23T04:48:29;100115.63;;;8.39;96.42
13952;BME280;39535;52.192;9.886;2023-02-23T04:50:57;100128.56;;;8.40;96.36
13952;BME280;39535;52.192;9.886;2023-02-23T04:53:24;100131.25;;;8.37;96.27
13952;BME280;39535;52.192;9.886;2023-02-23T04:55:51;100135.53;;;8.38;96.03
13952;BME280;39535;52.192;9.886;2023-02-23T04:58:17;100139.97;;;8.33;96.22
13952;BME280;39535;52.192;9.886;2023-02-23T05:00:44;100133.13;;;8.27;96.79
13952;BME280;39535;52.192;9.886;2023-02-23T05:03:10;100128.94;;;8.15;97.28
13952;BME280;39535;52.192;9.886;2023-02-23T05:05:37;100123.78;;;8.12;97.02
13952;BME280;39535;52.192;9.886;2023-02-23T05:08:05;100122.25;;;7.99;97.80
13952;BME280;39535;52.192;9.886;2023-02-23T05:10:31;100073.06;;;7.84;100.00
13952;BME280;39535;52.192;9.886;2023-02-23T05:12:58;100041.16;;;7.75;100.00
13952;BME280;39535;52.192;9.886;2023-02-23T05:15:25;100034.91;;;7.87;100.00
13952;BME280;39535;52.192;9.886;2023-02-23T05:17:52;100032.34;;;7.84;100.00
13952;BME280;39535;52.192;9.886;2023-02-23T05:20:19;100041.72;;;7.94;100.00
13952;BME280;39535;52.192;9.886;2023-02-23T05:22:45;100049.50;;;7.98;99.38
13952;BME280;39535;52.192;9.886;2023-02-23T05:25:13;100066.66;;;8.08;99.20
13952;BME280;39535;52.192;9.886;2023-02-23T05:27:39;100068.44;;;8.06;99.25
13952;BME280;39535;52.192;9.886;2023-02-23T05:30:06;100059.16;;;7.86;100.00
13952;BME280;39535;52.192;9.886;2023-02-23T05:32:34;100030.78;;;7.72;100.00
13952;BME280;39535;52.192;9.886;2023-02-23T05:35:00;100019.47;;;7.76;100.00
13952;BME280;39535;52.192;9.886;2023-02-23T05:37:26;100010.91;;;7.68;100.00
13952;BME280;39535;52.192;9.886;2023-02-23T05:39:53;99996.31;;;7.61;100.00
13952;BME280;39535;52.192;9.886;2023-02-23T05:42:20;99979.03;;;7.59;100.00
13952;BME280;39535;52.192;9.886;2023-02-23T05:44:47;99973.72;;;7.68;100.00
13952;BME280;39535;52.192;9.886;2023-02-23T05:47:13;99982.28;;;7.73;100.00
13952;BME280;39535;52.192;9.886;2023-02-23T05:49:40;99990.06;;;7.73;100.00
13952;BME280;39535;52.192;9.886;2023-02-23T05:52:07;99985.94;;;7.60;100.00
13952;BME280;39535;52.192;9.886;2023-02-23T05:54:33;99985.78;;;7.69;100.00
13952;BME280;39535;52.192;9.886;2023-02-23T05:56:59;99984.09;;;7.68;100.00
13952;BME280;39535;52.192;9.886;2023-02-23T05:59:27;99982.28;;;7.73;100.00
13952;BME280;39535;52.192;9.886;2023-02-23T06:01:53;99983.16;;;7.73;100.00
13952;BME280;39535;52.192;9.886;2023-02-23T06:04:20;99982.06;;;7.87;100.00
13952;BME280;39535;52.192;9.886;2023-02-23T06:06:47;99984.72;;;7.84;100.00
13952;BME280;39535;52.192;9.886;2023-02-23T06:09:13;99980.66;;;7.66;100.00
13952;BME280;39535;52.192;9.886;2023-02-23T06:11:40;99963.41;;;7.63;100.00
13952;BME280;39535;52.192;9.886;2023-02-23T06:14:06;99969.47;;;7.61;100.00
13952;BME280;39535;52.192;9.886;2023-02-23T06:16:34;99973.72;;;7.65;100.00
13952;BME280;39535;52.192;9.886;2023-02-23T06:19:00;99977.13;;;7.70;100.00
13952;BME280;39535;52.192;9.886;2023-02-23T06:21:26;99990.06;;;7.73;100.00
13952;BME280;39535;52.192;9.886;2023-02-23T06:23:53;99987.34;;;7.82;100.00
13952;BME280;39535;52.192;9.886;2023-02-23T06:26:19;99997.63;;;7.88;100.00
13952;BME280;39535;52.192;9.886;2023-02-23T06:28:45;100011.38;;;7.96;100.00
13952;BME280;39535;52.192;9.886;2023-02-23T06:31:12;100029.63;;;7.93;100.00
13952;BME280;39535;52.192;9.886;2023-02-23T06:33:39;100014.22;;;7.80;100.00
13952;BME280;39535;52.192;9.886;2023-02-23T06:36:06;100001.31;;;7.75;100.00
13952;BME280;39535;52.192;9.886;2023-02-23T06:38:34;99987.63;;;7.64;100.00
13952;BME280;39535;52.192;9.886;2023-02-23T06:41:05;99973.91;;;7.54;100.00
13952;BME280;39535;52.192;9.886;2023-02-23T06:43:32;99961.81;;;7.51;100.00
13952;BME280;39535;52.192;9.886;2023-02-23T06:45:58;99954.00;;;7.53;100.00
13952;BME280;39535;52.192;9.886;2023-02-23T06:48:24;99959.13;;;7.59;100.00
13952;BME280;39535;52.192;9.886;2023-02-23T06:50:52;99966.75;;;7.70;100.00
13952;BME280;39535;52.192;9.886;2023-02-23T06:53:19;99986.69;;;7.69;100.00
13952;BME280;39535;52.192;9.886;2023-02-23T06:55:46;99978.91;;;7.68;100.00
13952;BME280;39535;52.192;9.886;2023-02-23T06:58:12;99990.13;;;7.68;100.00
13952;BME280;39535;52.192;9.886;2023-02-23T07:00:38;100000.44;;;7.76;100.00
13952;BME280;39535;52.192;9.886;2023-02-23T07:03:07;100003.94;;;7.72;100.00
13952;BME280;39535;52.192;9.886;2023-02-23T07:05:33;99996.28;;;7.63;100.00
13952;BME280;39535;52.192;9.886;2023-02-23T07:08:01;100001.38;;;7.69;100.00
13952;BME280;39535;52.192;9.886;2023-02-23T07:10:28;99992.56;;;7.81;100.00
13952;BME280;39535;52.192;9.886;2023-02-23T07:12:54;100006.28;;;7.90;100.00
13952;BME280;39535;52.192;9.886;2023-02-23T07:15:21;100017.41;;;7.99;100.00
13952;BME280;39535;52.192;9.886;2023-02-23T07:17:47;100026.75;;;8.10;100.00
13952;BME280;39535;52.192;9.886;2023-02-23T07:20:15;100035.22;;;8.25;100.00
13952;BME280;39535;52.192;9.886;2023-02-23T07:22:42;100051.53;;;8.34;100.00
13952;BME280;39535;52.192;9.886;2023-02-23T07:25:10;100067.16;;;8.33;100.00
13952;BME280;39535;52.192;9.886;2023-02-23T07:27:36;100083.06;;;8.11;100.00
13952;BME280;39535;52.192;9.886;2023-02-23T07:30:04;100070.22;;;8.01;100.00
13952;BME280;39535;52.192;9.886;2023-02-23T07:32:30;100062.25;;;8.13;100.00
13952;BME280;39535;52.192;9.886;2023-02-23T07:34:57;100060.75;;;7.96;100.00
13952;BME280;39535;52.192;9.886;2023-02-23T07:37:23;100042.75;;;7.84;100.00
13952;BME280;39535;52.192;9.886;2023-02-23T07:39:49;100030.44;;;7.97;100.00
13952;BME280;39535;52.192;9.886;2023-02-23T07:42:17;100039.00;;;8.04;100.00
13952;BME280;39535;52.192;9.886;2023-02-23T07:44:43;100036.38;;;8.05;100.00
13952;BME280;39535;52.192;9.886;2023-02-23T07:47:10;100038.81;;;8.14;100.00
13952;BME280;39535;52.192;9.886;2023-02-23T07:49:36;100044.00;;;8.16;100.00
13952;BME280;39535;52.192;9.886;2023-02-23T07:52:03;100041.97;;;8.35;100.00
13952;BME280;39535;52.192;9.886;2023-02-23T07:54:29;100049.84;;;8.30;100.00
13952;BME280;39535;52.192;9.886;2023-02-23T07:56:55;100053.97;;;8.47;100.00
13952;BME280;39535;52.192;9.886;2023-02-23T07:59:24;100064.19;;;8.58;100.00
13952;BME280;39535;52.192;9.886;2023-02-23T08:01:51;100083.22;;;8.60;100.00
13952;BME280;39535;52.192;9.886;2023-02-23T08:04:17;100096.41;;;8.50;100.00
13952;BME280;39535;52.192;9.886;2023-02-23T08:06:43;100100.81;;;8.44;100.00
13952;BME280;39535;52.192;9.886;2023-02-23T08:09:10;100100.78;;;8.47;100.00
13952;BME280;39535;52.192;9.886;2023-02-23T08:11:37;100107.66;;;8.51;100.00
13952;BME280;39535;52.192;9.886;2023-02-23T08:14:03;100100.28;;;8.20;100.00
13952;BME280;39535;52.192;9.886;2023-02-23T08:16:32;100066.56;;;8.14;100.00
13952;BME280;39535;52.192;9.886;2023-02-23T08:18:59;100056.06;;;8.22;100.00
13952;BME280;39535;52.192;9.886;2023-02-23T08:21:26;100056.59;;;8.45;100.00
13952;BME280;39535;52.192;9.886;2023-02-23T08:23:53;100069.31;;;8.62;100.00
13952;BME280;39535;52.192;9.886;2023-02-23T08:26:20;100086.59;;;8.66;100.00
13952;BME280;39535;52.192;9.886;2023-02-23T08:28:48;100098.16;;;8.48;100.00
13952;BME280;39535;52.192;9.886;2023-02-23T08:31:15;100095.78;;;8.31;100.00
13952;BME280;39535;52.192;9.886;2023-02-23T08:33:44;100079.44;;;8.23;100.00
13952;BME280;39535;52.192;9.886;2023-02-23T08:36:10;100068.91;;;8.31;100.00
13952;BME280;39535;52.192;9.886;2023-02-23T08:38:37;100069.56;;;8.48;100.00
13952;BME280;39535;52.192;9.886;2023-02-23T08:41:04;100075.59;;;8.49;100.00
13952;BME280;39535;52.192;9.886;2023-02-23T08:43:31;100084.03;;;8.63;100.00
13952;BME280;39535;52.192;9.886;2023-02-23T08:45:57;100084.25;;;8.49;100.00
13952;BME280;39535;52.192;9.886;2023-02-23T08:48:23;100086.94;;;8.45;100.00
13952;BME280;39535;52.192;9.886;2023-02-23T08:50:55;100071.25;;;8.49;100.00
13952;BME280;39535;52.192;9.886;2023-02-23T08:53:21;100073.66;;;8.60;100.00
13952;BME280;39535;52.192;9.886;2023-02-23T08:55:54;100065.97;;;8.54;100.00
13952;BME280;39535;52.192;9.886;2023-02-23T08:58:20;100070.91;;;8.69;100.00
13952;BME280;39535;52.192;9.886;2023-02-23T09:00:47;100073.50;;;8.71;100.00
13952;BME280;39535;52.192;9.886;2023-02-23T09:03:13;100088.28;;;8.67;100.00
13952;BME280;39535;52.192;9.886;2023-02-23T09:05:40;100079.66;;;8.65;100.00
13952;BME280;39535;52.192;9.886;2023-02-23T09:08:09;100075.25;;;8.70;100.00
13952;BME280;39535;52.192;9.886;2023-02-23T09:10:36;100089.91;;;8.74;100.00
13952;BME280;39535;52.192;9.886;2023-02-23T09:13:02;100084.75;;;8.71;100.00
13952;BME280;39535;52.192;9.886;2023-02-23T09:15:29;100089.75;;;8.84;100.00
13952;BME280;39535;52.192;9.886;2023-02-23T09:17:58;100100.13;;;8.87;100.00
13952;BME280;39535;52.192;9.886;2023-02-23T09:20:25;100094.13;;;8.82;100.00
13952;BME280;39535;52.192;9.886;2023-02-23T09:22:51;100096.00;;;8.73;100.00
13952;BME280;39535;52.192;9.886;2023-02-23T09:25:20;100093.34;;;8.78;100.00
13952;BME280;39535;52.192;9.886;2023-02-23T09:27:47;100096.00;;;8.72;100.00
13952;BME280;39535;52.192;9.886;2023-02-23T09:30:14;100087.09;;;8.87;100.00
13952;BME280;39535;52.192;9.886;2023-02-23T09:32:42;100098.25;;;8.93;100.00
13952;BME280;39535;52.192;9.886;2023-02-23T09:35:09;100101.06;;;8.81;100.00
13952;BME280;39535;52.192;9.886;2023-02-23T09:37:35;100097.66;;;8.78;100.00
13952;BME280;39535;52.192;9.886;2023-02-23T09:40:02;100096.81;;;8.75;100.00
13952;BME280;39535;52.192;9.886;2023-02-23T09:42:41;100091.81;;;8.65;100.00
13952;BME280;39535;52.192;9.886;2023-02-23T09:45:19;100082.03;;;8.78;100.00
13952;BME280;39535;52.192;9.886;2023-02-23T09:47:56;100087.34;;;8.73;100.00
13952;BME280;39535;52.192;9.886;2023-02-23T09:50:28;100090.78;;;8.75;100.00
13952;BME280;39535;52.192;9.886;2023-02-23T09:52:58;100097.91;;;8.64;100.00
13952;BME280;39535;52.192;9.886;2023-02-23T09:55:26;100084.94;;;8.61;100.00
13952;BME280;39535;52.192;9.886;2023-02-23T09:57:55;100086.41;;;8.75;100.00
13952;BME280;39535;52.192;9.886;2023-02-23T10:00:24;100090.78;;;8.75;100.00
13952;BME280;39535;52.192;9.886;2023-02-23T10:02:59;100095.72;;;8.90;100.00
13952;BME280;39535;52.192;9.886;2023-02-23T10:05:29;100102.50;;;8.98;100.00
13952;BME280;39535;52.192;9.886;2023-02-23T10:08:02;100117.97;;;9.07;100.00
13952;BME280;39535;52.192;9.886;2023-02-23T10:10:36;100127.47;;;9.09;100.00
13952;BME280;39535;52.192;9.886;2023-02-23T10:13:14;100136.16;;;9.10;100.00
13952;BME280;39535;52.192;9.886;2023-02-23T10:15:50;100149.91;;;9.18;100.00
13952;BME280;39535;52.192;9.886;2023-02-23T10:18:25;100165.47;;;9.21;100.00
13952;BME280;39535;52.192;9.886;2023-02-23T10:21:01;100179.31;;;9.23;100.00
13952;BME280;39535;52.192;9.886;2023-02-23T10:23:30;100187.91;;;9.30;100.00
13952;BME280;39535;52.192;9.886;2023-02-23T10:25:59;100185.31;;;9.28;100.00
13952;BME280;39535;52.192;9.886;2023-02-23T10:28:32;100190.44;;;9.33;100.00
13952;BME280;39535;52.192;9.886;2023-02-23T10:30:59;100196.44;;;9.37;100.00
13952;BME280;39535;52.192;9.886;2023-02-23T10:33:32;100199.97;;;9.34;100.00
13952;BME280;39535;52.192;9.886;2023-02-23T10:36:09;100210.44;;;9.29;100.00
13952;BME280;39535;52.192;9.886;2023-02-23T10:38:38;100210.69;;;9.15;100.00
13952;BME280;39535;52.192;9.886;2023-02-23T10:41:04;100204.50;;;9.23;100.00
13952;BME280;39535;52.192;9.886;2023-02-23T10:43:32;100186.94;;;9.36;100.00
13952;BME280;39535;52.192;9.886;2023-02-23T10:45:58;100159.72;;;9.50;100.00
13952;BME280;39535;52.192;9.886;2023-02-23T10:48:28;100126.50;;;9.62;100.00
13952;BME280;39535;52.192;9.886;2023-02-23T10:50:57;100115.94;;;9.69;100.00
13952;BME280;39535;52.192;9.886;2023-02-23T10:53:30;100110.59;;;9.74;100.00
13952;BME280;39535;52.192;9.886;2023-02-23T10:56:04;100106.78;;;9.90;100.00
13952;BME280;39535;52.192;9.886;2023-02-23T10:58:38;100108.59;;;9.87;100.00
13952;BME280;39535;52.192;9.886;2023-02-23T11:01:05;100118.94;;;9.91;100.00
13952;BME280;39535;52.192;9.886;2023-02-23T11:03:34;100146.16;;;9.78;100.00
13952;BME280;39535;52.192;9.886;2023-02-23T11:06:02;100177.91;;;9.53;100.00
13952;BME280;39535;52.192;9.886;2023-02-23T11:08:31;100182.19;;;9.58;100.00
13952;BME280;39535;52.192;9.886;2023-02-23T11:11:05;100183.72;;;9.68;100.00
13952;BME280;39535;52.192;9.886;2023-02-23T11:13:35;100173.22;;;9.71;100.00
13952;BME280;39535;52.192;9.886;2023-02-23T11:16:06;100171.34;;;9.79;100.00
13952;BME280;39535;52.192;9.886;2023-02-23T11:18:34;100183.72;;;9.68;100.00
13952;BME280;39535;52.192;9.886;2023-02-23T11:21:01;100185.53;;;9.63;100.00
13952;BME280;39535;52.192;9.886;2023-02-23T11:23:30;100195.00;;;9.67;100.00
13952;BME280;39535;52.192;9.886;2023-02-23T11:26:01;100198.41;;;9.72;100.00
13952;BME280;39535;52.192;9.886;2023-02-23T11:28:30;100204.56;;;9.68;100.00
13952;BME280;39535;52.192;9.886;2023-02-23T11:31:00;100205.88;;;9.44;100.00
13952;BME280;39535;52.192;9.886;2023-02-23T11:33:30;100205.81;;;9.47;100.00
13952;BME280;39535;52.192;9.886;2023-02-23T11:36:12;100180.53;;;9.52;100.00
13952;BME280;39535;52.192;9.886;2023-02-23T11:38:39;100166.50;;;9.59;100.00
13952;BME280;39535;52.192;9.886;2023-02-23T11:41:17;100168.06;;;9.69;100.00
13952;BME280;39535;52.192;9.886;2023-02-23T11:43:47;100172.31;;;9.73;100.00
13952;BME280;39535;52.192;9.886;2023-02-23T11:46:14;100174.97;;;9.70;100.00
13952;BME280;39535;52.192;9.886;2023-02-23T11:48:48;100172.16;;;9.81;100.00
13952;BME280;39535;52.192;9.886;2023-02-23T11:51:22;100189.47;;;9.84;100.00
13952;BME280;39535;52.192;9.886;2023-02-23T11:53:50;100200.31;;;9.64;100.00
13952;BME280;39535;52.192;9.886;2023-02-23T11:56:20;100198.59;;;9.61;100.00
13952;BME280;39535;52.192;9.886;2023-02-23T11:58:49;100187.03;;;9.74;100.00
13952;BME280;39535;52.192;9.886;2023-02-23T12:01:20;100177.16;;;9.90;100.00
13952;BME280;39535;52.192;9.886;2023-02-23T12:03:51;100178.78;;;9.96;100.00
13952;BME280;39535;52.192;9.886;2023-02-23T12:06:26;100187.16;;;9.70;100.00
13952;BME280;39535;52.192;9.886;2023-02-23T12:08:57;100198.13;;;9.86;100.00
13952;BME280;39535;52.192;9.886;2023-02-23T12:11:28;100180.44;;;10.02;100.00
13952;BME280;39535;52.192;9.886;2023-02-23T12:14:01;100197.03;;;9.98;100.00
13952;BME280;39535;52.192;9.886;2023-02-23T12:16:32;100221.97;;;9.67;100.00
13952;BME280;39535;52.192;9.886;2023-02-23T12:19:03;100219.16;;;9.30;100.00
13952;BME280;39535;52.192;9.886;2023-02-23T12:21:36;100184.38;;;9.31;100.00
13952;BME280;39535;52.192;9.886;2023-02-23T12:24:12;100167.22;;;9.21;100.00
13952;BME280;39535;52.192;9.886;2023-02-23T12:26:45;100158.28;;;9.34;100.00
13952;BME280;39535;52.192;9.886;2023-02-23T12:29:20;100152.06;;;9.41;100.00
13952;BME280;39535;52.192;9.886;2023-02-23T12:31:51;100153.72;;;9.45;100.00
13952;BME280;39535;52.192;9.886;2023-02-23T12:34:26;100148.69;;;9.38;100.00
13952;BME280;39535;52.192;9.886;2023-02-23T12:36:57;100153.00;;;9.39;100.00
13952;BME280;39535;52.192;9.886;2023-02-23T12:39:29;100147.81;;;9.37;100.00
13952;BME280;39535;52.192;9.886;2023-02-23T12:42:01;100147.75;;;9.42;100.00
13952;BME280;39535;52.192;9.886;2023-02-23T12:44:36;100160.22;;;9.23;100.00
13952;BME280;39535;52.192;9.886;2023-02-23T12:47:11;100146.59;;;9.08;100.00
13952;BME280;39535;52.192;9.886;2023-02-23T12:49:43;100129.94;;;9.17;100.00
13952;BME280;39535;52.192;9.886;2023-02-23T12:52:15;100130.16;;;9.05;100.00
13952;BME280;39535;52.192;9.886;2023-02-23T12:54:44;100123.16;;;9.10;100.00
13952;BME280;39535;52.192;9.886;2023-02-23T12:57:20;100117.78;;;9.18;100.00
13952;BME280;39535;52.192;9.886;2023-02-23T13:03:06;100126.34;;;9.24;100.00
13952;BME280;39535;52.192;9.886;2023-02-23T13:05:43;100129.78;;;9.26;100.00
13952;BME280;39535;52.192;9.886;2023-02-23T13:08:27;100132.38;;;9.26;100.00
13952;BME280;39535;52.192;9.886;2023-02-23T13:11:05;100140.44;;;9.12;100.00
13952;BME280;39535;52.192;9.886;2023-02-23T13:13:40;100136.09;;;9.13;100.00
13952;BME280;39535;52.192;9.886;2023-02-23T13:16:16;100124.50;;;8.81;100.00
13952;BME280;39535;52.192;9.886;2023-02-23T13:18:47;100112.50;;;8.72;100.00
13952;BME280;39535;52.192;9.886;2023-02-23T13:21:22;100091.03;;;8.58;100.00
13952;BME280;39535;52.192;9.886;2023-02-23T13:23:56;100084.69;;;8.76;100.00